Time;durP1;ratioP1;P1;durP2;ratioP2;P2;SDS_P1;SDS_P2;PMS_P1;PMS_P2;Temp;Humidity;BMP_temperature;BMP_pressure;BME280_temperature;BME280_humidity;BME280_pressure;Samples;Min_cycle;Max_cycle;Signal;HPM_P1;HPM_P2
2022/06/11 00:00:53;;;;;;;7.22;6.53;;;;;;;14.46;92.42;94545.98;1803981;79;20965;-54
2022/06/11 00:03:20;;;;;;;8.03;6.62;;;;;;;14.44;92.29;94546.45;1804184;79;21076;-54
2022/06/11 00:05:49;;;;;;;12.25;6.60;;;;;;;14.40;92.40;94549.25;1803717;78;20989;-54
2022/06/11 00:08:19;;;;;;;7.47;6.78;;;;;;;14.35;92.55;94543.00;1782225;79;20942;-53
2022/06/11 00:10:49;;;;;;;10.63;6.28;;;;;;;14.31;92.80;94555.48;1803757;79;21100;-53
2022/06/11 00:13:22;;;;;;;8.48;6.60;;;;;;;14.30;93.12;94551.97;1803756;79;20945;-53
2022/06/11 00:15:48;;;;;;;7.17;6.45;;;;;;;14.28;93.17;94550.91;1782036;79;20946;-53
2022/06/11 00:18:18;;;;;;;7.72;6.95;;;;;;;14.24;93.35;94544.80;1803826;79;20966;-54
2022/06/11 00:20:47;;;;;;;7.42;6.53;;;;;;;14.24;93.87;94555.88;1778006;79;21068;-53
2022/06/11 00:23:15;;;;;;;8.95;5.87;;;;;;;14.24;94.21;94562.19;1803771;78;21314;-53
2022/06/11 00:25:43;;;;;;;6.80;6.20;;;;;;;14.25;94.34;94554.63;1803709;79;21013;-53
2022/06/11 00:28:11;;;;;;;14.28;7.30;;;;;;;14.23;94.40;94556.51;1803848;79;21005;-53
2022/06/11 00:30:40;;;;;;;10.48;7.40;;;;;;;14.26;94.77;94561.70;1803909;77;20965;-53
2022/06/11 00:33:08;;;;;;;8.08;6.87;;;;;;;14.26;95.24;94573.55;1804071;79;21127;-54
2022/06/11 00:35:37;;;;;;;9.83;7.20;;;;;;;14.23;95.60;94566.80;1803496;78;21184;-54
2022/06/11 00:38:06;;;;;;;8.18;6.95;;;;;;;14.23;95.99;94563.42;1798813;79;20970;-54
2022/06/11 00:40:35;;;;;;;7.40;6.70;;;;;;;14.28;96.29;94558.61;1799037;79;21021;-53
2022/06/11 00:43:06;;;;;;;6.83;6.25;;;;;;;14.29;95.78;94563.51;1798776;79;20986;-54
2022/06/11 00:45:47;;;;;;;10.32;7.42;;;;;;;14.30;96.22;94566.42;1798957;78;20973;-55
2022/06/11 00:48:33;;;;;;;8.68;7.10;;;;;;;14.36;96.58;94573.59;1798766;79;21247;-54
2022/06/11 00:51:05;;;;;;;10.68;7.92;;;;;;;14.46;96.76;94568.13;1799138;79;21379;-53
2022/06/11 00:53:43;;;;;;;10.68;8.25;;;;;;;14.53;96.39;94567.13;1798965;79;21005;-53
2022/06/11 00:56:15;;;;;;;14.75;8.13;;;;;;;14.52;95.85;94566.98;1799091;79;21002;-54
2022/06/11 00:58:45;;;;;;;12.80;7.50;;;;;;;14.49;96.14;94563.77;1798861;79;21018;-54
2022/06/11 01:01:15;;;;;;;7.03;6.33;;;;;;;14.48;96.22;94565.64;1799003;79;21746;-54
2022/06/11 01:03:45;;;;;;;7.17;6.35;;;;;;;14.49;96.27;94567.91;1798947;79;20961;-54
2022/06/11 01:06:21;;;;;;;8.15;7.35;;;;;;;14.51;96.23;94574.37;1799030;79;20963;-54
2022/06/11 01:09:12;;;;;;;11.40;8.53;;;;;;;14.47;96.09;94583.49;1798913;79;20961;-54
2022/06/11 01:12:14;;;;;;;8.28;6.72;;;;;;;14.43;95.99;94582.14;1798721;79;20937;-54
2022/06/11 01:14:50;;;;;;;8.63;6.78;;;;;;;14.41;95.67;94577.70;1798651;79;21510;-54
2022/06/11 01:17:34;;;;;;;11.05;7.33;;;;;;;14.37;95.80;94575.75;1798868;79;20930;-54
2022/06/11 01:20:15;;;;;;;10.53;7.35;;;;;;;14.38;95.64;94575.89;1798755;78;21469;-54
2022/06/11 01:23:28;;;;;;;10.05;7.30;;;;;;;14.33;95.54;94582.09;1776861;79;21461;-54
2022/06/11 01:26:42;;;;;;;8.30;6.62;;;;;;;14.29;95.85;94576.73;1798720;78;20973;-53
2022/06/11 01:29:41;;;;;;;11.85;8.03;;;;;;;14.29;96.03;94583.66;1798697;79;21268;-54
2022/06/11 01:32:13;;;;;;;13.32;8.18;;;;;;;14.28;96.42;94584.12;1798732;78;20934;-53
2022/06/11 01:35:14;;;;;;;14.73;8.35;;;;;;;14.34;96.46;94589.16;1798930;79;21005;-54
2022/06/11 01:37:50;;;;;;;10.53;7.45;;;;;;;14.39;96.83;94590.63;1802872;78;21025;-55
2022/06/11 01:40:33;;;;;;;9.25;8.35;;;;;;;14.46;96.41;94578.56;1803764;79;21409;-54
2022/06/11 01:43:13;;;;;;;11.63;8.20;;;;;;;14.46;96.07;94582.72;1803927;79;21111;-53
2022/06/11 01:45:42;;;;;;;10.20;8.30;;;;;;;14.47;96.25;94581.47;1803669;78;20922;-53
2022/06/11 01:48:15;;;;;;;10.28;7.37;;;;;;;14.47;96.06;94575.94;1803773;78;21028;-54
2022/06/11 01:50:49;;;;;;;16.02;9.28;;;;;;;14.47;96.27;94576.57;1803966;78;21005;-53
2022/06/11 01:53:42;;;;;;;12.95;8.48;;;;;;;14.46;96.26;94579.95;1804031;78;24313;-54
2022/06/11 01:56:37;;;;;;;11.38;8.75;;;;;;;14.48;96.37;94574.70;1803858;79;21269;-53
2022/06/11 01:59:28;;;;;;;9.68;7.65;;;;;;;14.51;96.24;94572.38;1803454;79;20990;-54
2022/06/11 02:02:26;;;;;;;10.93;7.55;;;;;;;14.55;95.89;94580.48;1803848;78;20954;-54
2022/06/11 02:05:11;;;;;;;10.43;7.35;;;;;;;14.56;95.66;94577.85;1772940;79;21553;-54
2022/06/11 02:08:15;;;;;;;8.93;7.58;;;;;;;14.61;96.06;94576.58;1802506;79;20977;-54
2022/06/11 02:11:16;;;;;;;9.85;7.80;;;;;;;14.67;95.44;94572.52;1745953;81;21740;-54
2022/06/11 02:13:55;;;;;;;8.75;7.85;;;;;;;14.68;95.06;94566.52;1789173;79;21028;-54
2022/06/11 02:16:39;;;;;;;16.20;7.37;;;;;;;14.68;94.75;94556.05;1803932;79;21001;-54
2022/06/11 02:19:14;;;;;;;11.80;8.60;;;;;;;14.71;94.87;94555.87;1804237;79;20942;-54
2022/06/11 02:21:49;;;;;;;11.68;8.53;;;;;;;14.69;94.45;94551.44;1804010;78;21064;-54
2022/06/11 02:24:20;;;;;;;10.08;8.48;;;;;;;14.67;94.83;94560.81;1803687;79;21279;-54
2022/06/11 02:26:53;;;;;;;15.75;8.98;;;;;;;14.69;94.85;94558.36;1803663;79;20914;-54
2022/06/11 02:29:23;;;;;;;15.20;8.65;;;;;;;14.73;94.94;94548.45;1804055;79;20982;-54
2022/06/11 02:31:54;;;;;;;12.50;8.85;;;;;;;14.79;94.96;94545.92;1803913;79;20969;-52
2022/06/11 02:34:23;;;;;;;10.43;8.33;;;;;;;14.81;94.58;94553.77;1804364;79;21040;-53
2022/06/11 02:37:03;;;;;;;9.63;8.53;;;;;;;14.82;94.42;94556.04;1809060;78;21426;-53
2022/06/11 02:39:35;;;;;;;9.55;7.83;;;;;;;14.80;94.21;94548.83;1818726;79;20985;-54
2022/06/11 02:42:05;;;;;;;9.83;8.05;;;;;;;14.87;94.47;94560.92;1818687;77;20969;-55
2022/06/11 02:44:33;;;;;;;12.73;8.63;;;;;;;14.93;94.32;94554.84;1810066;79;22043;-54
2022/06/11 02:47:01;;;;;;;11.63;8.15;;;;;;;14.93;94.08;94551.30;1798896;78;21024;-54
2022/06/11 02:49:33;;;;;;;8.68;7.87;;;;;;;14.97;93.94;94559.56;1798849;79;21124;-54
2022/06/11 02:52:08;;;;;;;9.83;7.67;;;;;;;15.01;94.12;94561.51;1799004;78;21021;-53
2022/06/11 02:54:36;;;;;;;10.05;7.80;;;;;;;15.10;93.82;94556.48;1799174;79;20950;-53
2022/06/11 02:57:09;;;;;;;12.82;8.93;;;;;;;15.08;93.36;94558.36;1798665;78;21418;-54
2022/06/11 02:59:37;;;;;;;12.55;8.93;;;;;;;15.01;93.52;94555.97;1799118;78;20938;-53
2022/06/11 03:02:06;;;;;;;11.15;8.68;;;;;;;15.02;93.89;94553.97;1798793;79;21864;-53
2022/06/11 03:04:35;;;;;;;9.25;8.08;;;;;;;15.05;93.62;94559.33;1799285;79;20990;-53
2022/06/11 03:07:03;;;;;;;11.43;9.08;;;;;;;15.11;93.48;94559.39;1798838;79;20969;-54
2022/06/11 03:09:32;;;;;;;10.98;8.43;;;;;;;15.16;93.85;94567.80;1776606;79;20997;-53
2022/06/11 03:12:01;;;;;;;9.58;8.33;;;;;;;15.26;93.86;94556.75;1798892;79;21429;-54
2022/06/11 03:14:29;;;;;;;7.62;6.80;;;;;;;15.36;93.12;94561.59;1776589;79;21280;-53
2022/06/11 03:16:58;;;;;;;10.05;8.00;;;;;;;15.37;92.58;94568.66;1799187;79;20930;-54
2022/06/11 03:19:26;;;;;;;8.73;7.92;;;;;;;15.36;92.21;94575.45;1798536;79;20938;-54
2022/06/11 03:21:55;;;;;;;8.95;8.15;;;;;;;15.40;92.31;94580.91;1798832;79;21048;-53
2022/06/11 03:24:25;;;;;;;10.53;8.20;;;;;;;15.45;92.65;94580.86;1799171;79;21037;-53
2022/06/11 03:26:53;;;;;;;9.40;8.23;;;;;;;15.50;92.10;94594.80;1798755;79;21248;-53
2022/06/11 03:29:21;;;;;;;8.13;7.17;;;;;;;15.52;91.88;94595.08;1799176;79;20938;-54
2022/06/11 03:31:50;;;;;;;9.40;7.62;;;;;;;15.58;91.92;94600.08;1798732;79;20946;-53
2022/06/11 03:34:18;;;;;;;9.80;8.80;;;;;;;15.64;91.53;94598.78;1799091;78;20934;-54
2022/06/11 03:36:46;;;;;;;21.27;14.58;;;;;;;15.67;91.58;94609.67;1801851;78;21004;-53
2022/06/11 03:39:18;;;;;;;16.00;12.90;;;;;;;15.70;91.19;94607.32;1781809;79;21927;-53
2022/06/11 03:41:48;;;;;;;13.93;9.03;;;;;;;15.73;91.18;94617.45;1803938;79;20938;-54
2022/06/11 03:44:17;;;;;;;10.82;9.65;;;;;;;15.79;90.66;94612.75;1803945;79;20981;-53
2022/06/11 03:46:46;;;;;;;10.40;9.20;;;;;;;15.80;90.26;94613.50;1803768;78;20985;-53
2022/06/11 03:49:15;;;;;;;12.37;9.05;;;;;;;15.77;89.78;94604.77;1803810;79;21394;-53
2022/06/11 03:51:42;;;;;;;13.65;9.00;;;;;;;15.75;89.85;94608.02;1804300;79;21065;-53
2022/06/11 03:54:11;;;;;;;10.35;9.18;;;;;;;15.73;89.42;94608.38;1803797;78;20969;-53
2022/06/11 03:56:40;;;;;;;21.73;11.68;;;;;;;15.72;89.47;94618.69;1803797;79;20981;-54
2022/06/11 03:59:09;;;;;;;16.12;11.33;;;;;;;15.72;89.55;94618.69;1780609;79;21407;-53
2022/06/11 04:01:38;;;;;;;21.00;18.90;;;;;;;15.71;89.64;94617.16;1755575;79;20949;-53
2022/06/11 04:04:10;;;;;;;21.35;18.55;;;;;;;15.72;89.76;94606.20;1803926;79;21407;-53
2022/06/11 04:06:48;;;;;;;13.60;12.20;;;;;;;15.73;89.83;94613.28;1804077;78;20977;-52
2022/06/11 04:09:25;;;;;;;9.15;8.10;;;;;;;15.74;89.86;94618.22;1803839;79;20857;-54
2022/06/11 04:11:54;;;;;;;8.65;7.85;;;;;;;15.71;90.02;94618.55;1803672;79;21064;-54
2022/06/11 04:14:23;;;;;;;12.55;8.80;;;;;;;15.71;89.55;94621.97;1756640;79;20961;-54
2022/06/11 04:16:58;;;;;;;9.85;8.95;;;;;;;15.71;89.54;94615.03;1804569;78;21089;-53
2022/06/11 04:19:37;;;;;;;13.00;9.18;;;;;;;15.70;90.16;94619.05;1781797;79;21422;-53
2022/06/11 04:22:06;;;;;;;9.70;8.30;;;;;;;15.75;90.69;94620.50;1803738;79;21447;-53
2022/06/11 04:24:36;;;;;;;10.32;8.28;;;;;;;15.81;90.91;94620.58;1803866;79;21052;-54
2022/06/11 04:27:05;;;;;;;9.58;8.13;;;;;;;15.83;90.61;94625.80;1804222;78;20981;-54
2022/06/11 04:29:36;;;;;;;12.18;8.20;;;;;;;15.80;90.69;94612.12;1782140;79;21136;-54
2022/06/11 04:32:07;;;;;;;8.85;7.65;;;;;;;15.75;90.79;94609.40;1804095;78;21485;-54
2022/06/11 04:34:35;;;;;;;11.12;8.53;;;;;;;15.70;90.79;94612.87;1803838;79;20977;-54
2022/06/11 04:37:04;;;;;;;11.15;9.00;;;;;;;15.68;91.38;94605.66;1806371;77;21030;-54
2022/06/11 04:39:34;;;;;;;11.90;10.03;;;;;;;15.62;91.78;94615.91;1814972;79;20977;-54
2022/06/11 04:42:03;;;;;;;10.40;9.30;;;;;;;15.63;92.24;94620.22;1798617;79;21309;-54
2022/06/11 04:44:31;;;;;;;9.50;8.50;;;;;;;15.63;92.69;94630.53;1798786;79;21418;-53
2022/06/11 04:47:00;;;;;;;9.63;8.35;;;;;;;15.68;93.16;94622.91;1798678;79;20974;-54
2022/06/11 04:49:29;;;;;;;9.78;8.88;;;;;;;15.72;92.99;94631.17;1798673;78;21053;-54
2022/06/11 04:51:56;;;;;;;10.90;9.85;;;;;;;15.75;92.63;94627.43;1798735;79;20946;-54
2022/06/11 04:54:25;;;;;;;10.45;9.15;;;;;;;15.78;92.79;94631.26;1798768;78;21116;-53
2022/06/11 04:56:54;;;;;;;14.58;9.30;;;;;;;15.84;92.87;94632.09;1798973;79;21017;-54
2022/06/11 04:59:22;;;;;;;15.28;9.68;;;;;;;15.94;92.85;94633.50;1798792;78;21021;-54
2022/06/11 05:01:50;;;;;;;14.38;10.08;;;;;;;16.06;92.31;94633.16;1798911;79;21426;-54
2022/06/11 05:04:18;;;;;;;17.45;10.20;;;;;;;16.12;91.63;94624.91;1750103;79;20922;-54
2022/06/11 05:06:47;;;;;;;11.90;9.60;;;;;;;16.12;91.59;94635.37;1776709;79;20974;-55
2022/06/11 05:09:18;;;;;;;10.60;9.33;;;;;;;16.15;91.12;94633.66;1798664;79;21458;-54
2022/06/11 05:11:46;;;;;;;13.30;9.98;;;;;;;16.12;91.11;94638.15;1776620;79;21033;-55
2022/06/11 05:14:14;;;;;;;13.15;9.63;;;;;;;16.14;90.59;94638.45;1798978;79;21478;-54
2022/06/11 05:16:43;;;;;;;11.22;9.30;;;;;;;16.14;90.75;94644.01;1772723;79;20957;-54
2022/06/11 05:19:14;;;;;;;12.45;9.10;;;;;;;16.16;90.53;94642.89;1798584;79;21034;-54
2022/06/11 05:21:43;;;;;;;12.37;8.65;;;;;;;16.19;90.10;94645.30;1798850;79;20997;-55
2022/06/11 05:24:11;;;;;;;12.10;9.48;;;;;;;16.19;90.32;94650.25;1776371;79;20938;-55
2022/06/11 05:26:56;;;;;;;12.00;10.25;;;;;;;16.19;90.22;94643.92;1798582;79;20954;-54
2022/06/11 05:29:35;;;;;;;13.50;9.90;;;;;;;16.17;90.80;94644.42;1779458;79;21033;-53
2022/06/11 05:32:03;;;;;;;13.25;9.20;;;;;;;16.17;90.77;94636.09;1798996;79;21105;-54
2022/06/11 05:34:32;;;;;;;13.90;9.45;;;;;;;16.13;90.71;94636.16;1798912;78;20937;-55
2022/06/11 05:36:59;;;;;;;13.45;10.98;;;;;;;16.13;91.34;94634.77;1776518;79;20984;-57
2022/06/11 05:39:28;;;;;;;12.70;11.40;;;;;;;16.15;91.79;94630.27;1776582;79;21501;-55
2022/06/11 05:41:56;;;;;;;17.87;11.60;;;;;;;16.23;92.27;94637.52;1777007;79;21021;-53
2022/06/11 05:44:25;;;;;;;14.38;10.85;;;;;;;16.29;92.22;94638.52;1798581;78;21234;-54
2022/06/11 05:46:53;;;;;;;14.40;9.73;;;;;;;16.37;92.10;94643.06;1776243;79;20985;-54
2022/06/11 05:49:25;;;;;;;20.17;16.20;;;;;;;16.45;91.15;94644.16;1798741;78;21032;-54
2022/06/11 05:51:56;;;;;;;14.78;11.73;;;;;;;16.45;90.68;94645.54;1798593;78;21474;-54
2022/06/11 05:54:27;;;;;;;18.12;15.72;;;;;;;16.49;90.86;94648.86;1776872;79;20974;-54
2022/06/11 05:56:55;;;;;;;15.23;10.98;;;;;;;16.53;90.62;94649.44;1799072;79;21741;-55
2022/06/11 05:59:26;;;;;;;17.45;14.55;;;;;;;16.57;90.75;94652.77;1798750;79;20981;-56
2022/06/11 06:01:54;;;;;;;12.80;10.68;;;;;;;16.61;91.06;94654.08;1799311;78;21469;-54
2022/06/11 06:04:23;;;;;;;13.50;11.60;;;;;;;16.68;91.32;94651.48;1798721;79;21061;-54
2022/06/11 06:06:52;;;;;;;22.32;18.05;;;;;;;16.71;91.14;94650.53;1777019;79;21547;-54
2022/06/11 06:09:21;;;;;;;13.25;11.68;;;;;;;16.70;90.56;94655.95;1798916;79;21109;-55
2022/06/11 06:11:48;;;;;;;13.30;9.23;;;;;;;16.71;90.54;94658.22;1798601;79;20981;-54
2022/06/11 06:14:17;;;;;;;11.95;8.80;;;;;;;16.74;90.36;94656.48;1798808;79;20977;-54
2022/06/11 06:16:45;;;;;;;16.42;10.00;;;;;;;16.80;90.53;94660.08;1798727;78;21466;-55
2022/06/11 06:19:14;;;;;;;12.28;10.18;;;;;;;16.90;91.03;94657.30;1798754;79;21036;-56
2022/06/11 06:21:43;;;;;;;18.85;14.80;;;;;;;17.02;90.83;94656.14;1799055;78;21890;-54
2022/06/11 06:24:11;;;;;;;14.40;10.80;;;;;;;17.12;90.81;94657.52;1775304;79;20930;-54
2022/06/11 06:26:40;;;;;;;10.53;9.35;;;;;;;17.26;90.46;94656.00;1799124;79;21399;-56
2022/06/11 06:29:10;;;;;;;10.38;9.05;;;;;;;17.34;89.75;94652.17;1798638;78;20935;-54
2022/06/11 06:31:37;;;;;;;10.98;9.25;;;;;;;17.44;89.47;94649.37;1798752;79;21147;-54
2022/06/11 06:34:06;;;;;;;12.33;10.80;;;;;;;17.61;88.60;94655.83;1798734;79;21116;-55
2022/06/11 06:36:34;;;;;;;12.55;11.20;;;;;;;17.80;88.70;94648.63;1798755;78;21122;-54
2022/06/11 06:39:02;;;;;;;11.57;10.08;;;;;;;17.95;88.01;94649.20;1757215;79;21422;-56
2022/06/11 06:41:31;;;;;;;12.90;11.55;;;;;;;18.11;87.82;94646.54;1781991;79;20986;-54
2022/06/11 06:44:00;;;;;;;12.40;10.80;;;;;;;18.29;87.56;94652.48;1804109;78;21060;-55
2022/06/11 06:46:28;;;;;;;15.70;14.03;;;;;;;18.48;86.92;94656.36;1781681;79;21192;-57
2022/06/11 06:48:57;;;;;;;16.80;13.55;;;;;;;18.61;86.70;94657.33;1781422;79;21411;-54
2022/06/11 06:51:24;;;;;;;17.52;14.40;;;;;;;18.77;86.45;94651.80;1803854;79;21515;-54
2022/06/11 06:53:54;;;;;;;20.20;14.38;;;;;;;18.90;85.93;94654.11;1780632;79;20986;-54
2022/06/11 06:56:26;;;;;;;14.73;11.60;;;;;;;18.95;85.92;94652.73;1781728;79;21044;-54
2022/06/11 06:58:52;;;;;;;15.90;13.38;;;;;;;19.03;85.32;94648.18;1781752;79;21550;-54
2022/06/11 07:01:22;;;;;;;22.32;13.10;;;;;;;19.19;86.10;94645.34;1803754;79;20930;-56
2022/06/11 07:03:49;;;;;;;15.38;11.70;;;;;;;19.41;86.21;94644.71;1803746;79;20973;-55
2022/06/11 07:06:18;;;;;;;14.33;12.82;;;;;;;19.62;85.28;94644.61;1803777;79;20955;-55
2022/06/11 07:08:50;;;;;;;19.07;15.55;;;;;;;19.80;83.50;94641.30;1803889;78;20906;-54
2022/06/11 07:11:19;;;;;;;19.73;16.32;;;;;;;19.91;82.57;94649.65;1803722;78;21107;-55
2022/06/11 07:13:48;;;;;;;19.35;14.05;;;;;;;20.06;82.63;94650.80;1804061;79;20949;-55
2022/06/11 07:16:21;;;;;;;15.38;12.15;;;;;;;20.21;81.74;94646.47;1804009;79;20969;-55
2022/06/11 07:18:53;;;;;;;10.90;9.80;;;;;;;20.40;81.35;94648.82;1804556;78;20981;-55
2022/06/11 07:21:25;;;;;;;13.22;9.85;;;;;;;20.52;78.93;94627.95;1782185;79;21013;-56
2022/06/11 07:23:55;;;;;;;15.65;9.75;;;;;;;20.62;77.50;94641.75;1804039;79;21679;-55
2022/06/11 07:26:30;;;;;;;8.93;8.03;;;;;;;20.74;77.05;94643.23;1803724;78;21501;-55
2022/06/11 07:29:02;;;;;;;9.43;8.53;;;;;;;20.89;76.90;94649.30;1803879;78;20937;-61
2022/06/11 07:31:30;;;;;;;16.05;14.43;;;;;;;21.10;76.66;94644.86;1732446;79;20938;-55
2022/06/11 07:33:59;;;;;;;12.35;9.13;;;;;;;21.29;75.51;94648.55;1781577;77;20942;-55
2022/06/11 07:36:28;;;;;;;11.90;8.60;;;;;;;21.43;72.13;94639.02;1804194;79;21236;-55
2022/06/11 07:38:56;;;;;;;9.80;8.38;;;;;;;21.45;72.78;94643.48;1803603;78;21454;-58
2022/06/11 07:41:24;;;;;;;11.48;9.50;;;;;;;21.47;68.84;94641.66;1781626;79;20972;-54
2022/06/11 07:43:55;;;;;;;10.05;9.05;;;;;;;21.43;70.52;94648.19;1782237;79;20997;-57
2022/06/11 07:46:23;;;;;;;13.83;8.43;;;;;;;21.51;70.30;94643.53;1803724;79;20969;-55
2022/06/11 07:48:53;;;;;;;9.88;8.35;;;;;;;21.81;72.13;94640.81;1803645;77;21131;-55
2022/06/11 07:51:21;;;;;;;12.07;8.33;;;;;;;22.17;69.32;94640.20;1803642;79;20938;-56
2022/06/11 07:53:49;;;;;;;8.63;7.72;;;;;;;22.52;68.87;94652.09;1803734;78;20985;-55
2022/06/11 07:56:19;;;;;;;22.55;8.90;;;;;;;22.79;66.57;94650.23;1804297;78;20970;-55
2022/06/11 07:58:49;;;;;;;10.80;7.95;;;;;;;22.93;66.07;94647.00;1782201;78;21417;-56
2022/06/11 08:01:18;;;;;;;10.78;8.85;;;;;;;22.97;65.66;94647.45;1804153;79;21175;-55
2022/06/11 08:03:48;;;;;;;8.68;7.70;;;;;;;22.92;65.35;94652.50;1803700;79;20961;-55
2022/06/11 08:06:16;;;;;;;9.58;7.97;;;;;;;22.86;63.70;94667.23;1804024;78;21064;-55
2022/06/11 08:08:46;;;;;;;11.95;8.18;;;;;;;22.74;63.08;94664.45;1803638;79;21001;-55
2022/06/11 08:11:16;;;;;;;9.80;7.80;;;;;;;22.65;64.59;94666.20;1804381;79;20981;-55
2022/06/11 08:13:46;;;;;;;9.23;7.58;;;;;;;22.58;65.16;94667.44;1803742;78;21286;-57
2022/06/11 08:16:15;;;;;;;9.70;7.75;;;;;;;22.46;65.05;94676.62;1804009;79;21493;-58
2022/06/11 08:18:44;;;;;;;9.25;7.85;;;;;;;22.46;65.30;94675.22;1803965;79;21469;-56
2022/06/11 08:21:12;;;;;;;10.58;8.20;;;;;;;22.53;66.53;94680.26;1803918;79;21417;-55
2022/06/11 08:23:42;;;;;;;8.63;7.72;;;;;;;22.63;64.54;94668.78;1781893;79;20961;-54
2022/06/11 08:26:10;;;;;;;17.73;8.33;;;;;;;22.76;63.92;94681.52;1781933;79;21481;-56
2022/06/11 08:28:40;;;;;;;8.53;7.70;;;;;;;22.92;63.13;94682.59;1803656;78;20977;-55
2022/06/11 08:31:08;;;;;;;9.60;6.65;;;;;;;23.07;62.90;94689.94;1803822;79;21105;-55
2022/06/11 08:33:36;;;;;;;8.90;7.78;;;;;;;23.15;62.08;94697.89;1803762;79;20977;-57
2022/06/11 08:36:05;;;;;;;8.70;7.75;;;;;;;23.11;60.96;94688.39;1803961;78;21025;-57
2022/06/11 08:38:33;;;;;;;9.85;8.78;;;;;;;23.04;60.86;94697.36;1806324;78;21874;-55
2022/06/11 08:41:02;;;;;;;13.30;8.15;;;;;;;22.92;61.45;94693.82;1803182;78;20922;-56
2022/06/11 08:43:38;;;;;;;9.18;7.83;;;;;;;22.82;60.88;94687.81;1798776;79;20941;-54
2022/06/11 08:46:17;;;;;;;9.03;8.13;;;;;;;22.80;61.66;94686.84;1776471;79;20954;-58
2022/06/11 08:49:08;;;;;;;10.53;8.98;;;;;;;22.83;61.75;94694.94;1798501;78;20985;-56
2022/06/11 08:51:49;;;;;;;10.18;8.80;;;;;;;22.87;61.55;94693.25;1798842;79;21023;-55
2022/06/11 08:54:24;;;;;;;9.70;8.70;;;;;;;22.95;61.97;94688.55;1776592;79;20925;-54
2022/06/11 08:57:43;;;;;;;9.85;8.65;;;;;;;23.13;61.58;94677.39;1799266;78;20942;-55
2022/06/11 09:00:42;;;;;;;11.48;8.60;;;;;;;23.35;60.93;94679.89;1798694;79;20985;-56
2022/06/11 09:03:24;;;;;;;11.35;9.20;;;;;;;23.44;58.98;94680.92;1798943;79;20922;-56
2022/06/11 09:06:17;;;;;;;13.23;9.57;;;;;;;23.44;58.93;94679.52;1798969;78;21131;-56
2022/06/11 09:08:50;;;;;;;9.65;8.50;;;;;;;23.47;59.01;94674.87;1798793;79;21387;-56
2022/06/11 09:11:58;;;;;;;12.03;8.05;;;;;;;23.45;59.99;94675.41;1798562;79;20953;-55
2022/06/11 09:14:58;;;;;;;15.32;10.18;;;;;;;23.35;60.44;94678.48;1798641;79;20954;-56
2022/06/11 09:18:06;;;;;;;14.40;10.23;;;;;;;23.25;60.97;94675.95;1765726;79;20939;-55
2022/06/11 09:20:58;;;;;;;11.63;9.63;;;;;;;23.27;61.25;94674.00;1798622;78;21111;-58
2022/06/11 09:23:37;;;;;;;11.00;9.78;;;;;;;23.36;60.52;94675.05;1776763;79;20974;-57
2022/06/11 09:26:34;;;;;;;13.72;9.03;;;;;;;23.36;60.07;94674.38;1798528;79;20982;-56
2022/06/11 09:29:18;;;;;;;10.18;9.08;;;;;;;23.46;60.14;94684.59;1798849;79;21021;-57
2022/06/11 09:32:15;;;;;;;9.78;8.78;;;;;;;23.67;59.74;94677.12;1798921;79;21040;-54
2022/06/11 09:34:56;;;;;;;11.43;8.68;;;;;;;23.76;59.21;94674.67;1798731;79;21094;-56
2022/06/11 09:37:37;;;;;;;17.80;9.70;;;;;;;23.89;58.04;94682.42;1799142;79;20962;-55
2022/06/11 09:40:29;;;;;;;10.50;8.63;;;;;;;24.08;58.70;94683.27;1800668;78;20974;-59
2022/06/11 09:43:12;;;;;;;10.60;8.58;;;;;;;24.30;56.61;94673.03;1801102;78;20942;-59
2022/06/11 09:46:16;;;;;;;13.40;9.30;;;;;;;24.46;54.98;94672.61;1803889;78;21009;-56
2022/06/11 09:49:00;;;;;;;12.80;8.60;;;;;;;24.47;55.22;94676.94;1803962;79;21194;-56
2022/06/11 09:52:00;;;;;;;12.70;9.08;;;;;;;24.59;55.89;94675.48;1803758;78;21437;-56
2022/06/11 09:54:53;;;;;;;11.95;9.30;;;;;;;24.68;55.52;94669.41;1803792;79;20946;-57
2022/06/11 09:57:32;;;;;;;11.13;9.50;;;;;;;24.80;54.80;94672.13;1804170;79;21442;-55
2022/06/11 10:00:24;;;;;;;12.85;10.00;;;;;;;24.93;54.74;94658.80;1803832;79;20977;-56
2022/06/11 10:05:48;;;;;;;23.85;11.53;;;;;;;25.30;53.56;94671.89;1765771;79;20139;-56
2022/06/11 10:08:57;;;;;;;10.72;9.08;;;;;;;25.22;52.11;94673.84;1803915;78;21889;-57
2022/06/11 10:11:35;;;;;;;11.00;7.33;;;;;;;25.10;51.73;94670.47;1803920;79;20978;-55
2022/06/11 10:14:28;;;;;;;11.55;7.85;;;;;;;24.92;52.11;94667.13;1803809;78;21016;-55
2022/06/11 10:17:23;;;;;;;8.63;7.67;;;;;;;24.68;54.42;94673.63;1782159;79;21458;-55
2022/06/11 10:20:07;;;;;;;15.00;8.00;;;;;;;24.46;54.67;94671.21;1797156;79;21076;-55
2022/06/11 10:22:40;;;;;;;12.40;7.95;;;;;;;24.28;54.73;94669.23;1803683;78;20969;-55
2022/06/11 10:25:35;;;;;;;10.05;7.70;;;;;;;24.12;55.07;94673.09;1803885;79;21449;-55
2022/06/11 10:28:15;;;;;;;16.70;9.43;;;;;;;23.98;55.72;94672.19;1804014;78;20986;-56
2022/06/11 10:31:06;;;;;;;20.48;10.18;;;;;;;23.78;55.96;94667.87;1803742;78;22165;-55
2022/06/11 10:33:42;;;;;;;15.13;10.65;;;;;;;23.72;56.11;94660.84;1803724;79;20994;-55
2022/06/11 10:36:15;;;;;;;31.12;12.55;;;;;;;23.74;56.58;94666.02;1804222;78;21398;-56
2022/06/11 10:39:14;;;;;;;11.57;10.38;;;;;;;23.79;55.99;94660.21;1805240;78;21517;-54
2022/06/11 10:41:56;;;;;;;22.93;10.98;;;;;;;23.78;56.25;94666.47;1808363;79;21493;-56
2022/06/11 10:44:42;;;;;;;12.20;10.32;;;;;;;23.71;56.10;94668.50;1804311;78;21715;-55
2022/06/11 10:47:17;;;;;;;13.53;9.83;;;;;;;23.66;56.04;94667.95;1803725;79;20926;-55
2022/06/11 10:49:52;;;;;;;13.15;10.53;;;;;;;23.61;56.05;94665.96;1803750;78;21027;-57
2022/06/11 10:52:32;;;;;;;18.02;11.45;;;;;;;23.56;55.91;94666.81;1802733;79;20969;-58
2022/06/11 10:55:00;;;;;;;15.75;10.32;;;;;;;23.58;56.40;94662.82;1787488;79;20985;-55
2022/06/11 10:57:29;;;;;;;11.70;10.08;;;;;;;23.63;56.00;94663.40;1798650;78;21139;-57
2022/06/11 11:00:29;;;;;;;12.28;10.95;;;;;;;23.71;56.32;94662.88;1750023;81;20977;-59
2022/06/11 11:03:19;;;;;;;12.63;10.08;;;;;;;23.76;55.05;94659.22;1770521;80;20945;-57
2022/06/11 11:06:08;;;;;;;15.18;11.03;;;;;;;23.77;55.82;94655.78;1772202;79;20989;-56
2022/06/11 11:08:39;;;;;;;11.57;10.35;;;;;;;23.77;55.08;94659.33;1772091;80;21502;-58
2022/06/11 11:11:10;;;;;;;11.95;10.70;;;;;;;23.73;55.65;94656.08;1748359;81;21095;-55
2022/06/11 11:13:41;;;;;;;12.33;10.15;;;;;;;23.70;55.47;94654.34;1751210;81;20938;-55
2022/06/11 11:16:22;;;;;;;11.38;9.33;;;;;;;23.68;55.13;94652.72;1772662;81;21411;-56
2022/06/11 11:18:55;;;;;;;11.03;9.93;;;;;;;23.72;55.92;94650.34;1772610;79;20974;-56
2022/06/11 11:21:34;;;;;;;18.00;11.20;;;;;;;23.67;55.42;94656.82;1772065;79;20949;-55
2022/06/11 11:24:17;;;;;;;14.00;11.18;;;;;;;23.50;55.33;94656.31;1761498;80;21278;-57
2022/06/11 11:26:58;;;;;;;14.73;10.45;;;;;;;23.39;56.34;94655.06;1771928;80;21043;-56
2022/06/11 11:29:33;;;;;;;15.73;10.57;;;;;;;23.28;57.62;94654.46;1772715;79;21076;-55
2022/06/11 11:32:08;;;;;;;13.10;10.38;;;;;;;23.22;57.15;94658.00;1728733;81;21032;-54
2022/06/11 11:34:45;;;;;;;10.05;8.83;;;;;;;23.19;57.48;94655.60;1772398;80;20985;-55
2022/06/11 11:37:33;;;;;;;12.00;10.68;;;;;;;23.21;58.00;94655.08;1751327;80;21824;-57
2022/06/11 11:40:07;;;;;;;12.55;10.65;;;;;;;23.34;58.03;94655.13;1735329;80;20961;-54
2022/06/11 11:42:39;;;;;;;18.27;10.88;;;;;;;23.31;58.17;94651.36;1668468;83;21021;-54
2022/06/11 11:45:26;;;;;;;10.85;9.48;;;;;;;23.34;58.06;94644.67;1704567;81;21004;-57
2022/06/11 11:48:04;;;;;;;16.87;14.15;;;;;;;23.28;58.20;94655.87;1764765;79;21005;-57
2022/06/11 11:50:37;;;;;;;14.20;11.25;;;;;;;23.34;58.32;94650.92;1761549;80;21855;-55
2022/06/11 11:53:26;;;;;;;13.45;11.97;;;;;;;23.39;57.69;94646.64;1761310;79;20970;-54
2022/06/11 11:56:04;;;;;;;14.45;10.18;;;;;;;23.44;57.92;94645.81;1761151;80;20973;-54
2022/06/11 11:58:37;;;;;;;18.65;10.95;;;;;;;23.58;57.89;94645.22;1761258;81;21076;-55
2022/06/11 12:01:10;;;;;;;12.25;10.23;;;;;;;23.67;57.10;94653.23;1726888;82;21044;-56
2022/06/11 12:03:42;;;;;;;13.55;11.12;;;;;;;23.67;57.46;94646.98;1750910;80;21819;-59